DLH4CD LFBZ-EDDH
Flight info
| Callsign | DLH4CD |
|---|---|
| Flight time | 2h 2m |
| Altitude | 34000 |
| Route | VAVIX DCT LMG DCT BRY/N0452F350 DCT SPI DCT HMM DCT BMN DCT RIBSO RIBSO3P |
| Aircraft | A321/M-SDE3FGHIRWY/LB1 |
Departure
| Time | 2026-04-22 18:49 |
|---|---|
| Airport | Biarritz Pays Basque airport (LFBZ) |
Arrival
| Time | 2026-04-22 20:51 |
|---|---|
| Airport | Hamburg Helmut Schmidt Airport (EDDH) |
| Time | Latitude | Longitude | Altitude | Speed | Heading |
|---|---|---|---|---|---|
| 2026-04-22 18:02 | 43.47107 | -1.52893 | 245 ft | 0 kts | 11° |
| 2026-04-22 18:19 | 43.47098 | -1.52895 | 245 ft | 3 kts | 358° |
| 2026-04-22 18:19 | 43.47081 | -1.52896 | 245 ft | 3 kts | 12° |
| 2026-04-22 18:19 | 43.47064 | -1.52904 | 246 ft | 3 kts | 48° |
| 2026-04-22 18:19 | 43.47056 | -1.52924 | 246 ft | 3 kts | 84° |
| 2026-04-22 18:20 | 43.47055 | -1.52943 | 246 ft | 1 kts | 90° |
| 2026-04-22 18:29 | 43.47107 | -1.52893 | 247 ft | 0 kts | 11° |
| 2026-04-22 18:30 | 43.47108 | -1.52893 | 246 ft | 0 kts | 11° |
| 2026-04-22 18:31 | 43.47107 | -1.52893 | 245 ft | 0 kts | 11° |
| 2026-04-22 18:40 | 43.47096 | -1.52895 | 245 ft | 3 kts | 2° |
| 2026-04-22 18:40 | 43.47078 | -1.52896 | 245 ft | 3 kts | 15° |
| 2026-04-22 18:41 | 43.47063 | -1.52906 | 246 ft | 3 kts | 54° |
| 2026-04-22 18:41 | 43.47056 | -1.52928 | 246 ft | 3 kts | 86° |
| 2026-04-22 18:41 | 43.47055 | -1.52943 | 246 ft | 0 kts | 90° |
| 2026-04-22 18:44 | 43.47053 | -1.52926 | 246 ft | 7 kts | 104° |
| 2026-04-22 18:44 | 43.47023 | -1.52875 | 245 ft | 8 kts | 134° |
| 2026-04-22 18:45 | 43.46995 | -1.52788 | 245 ft | 12 kts | 92° |
| 2026-04-22 18:45 | 43.46995 | -1.52657 | 243 ft | 15 kts | 89° |
| 2026-04-22 18:45 | 43.46997 | -1.52496 | 242 ft | 18 kts | 89° |
| 2026-04-22 18:45 | 43.46998 | -1.52307 | 240 ft | 17 kts | 90° |
| 2026-04-22 18:46 | 43.46941 | -1.52186 | 239 ft | 16 kts | 160° |
| 2026-04-22 18:46 | 43.46851 | -1.52104 | 238 ft | 17 kts | 109° |
| 2026-04-22 18:46 | 43.46848 | -1.51940 | 237 ft | 18 kts | 90° |
| 2026-04-22 18:46 | 43.46846 | -1.51759 | 235 ft | 20 kts | 91° |
| 2026-04-22 18:47 | 43.46846 | -1.51562 | 234 ft | 21 kts | 91° |
| 2026-04-22 18:47 | 43.46844 | -1.51353 | 232 ft | 23 kts | 88° |
| 2026-04-22 18:47 | 43.46846 | -1.51128 | 229 ft | 24 kts | 86° |
| 2026-04-22 18:47 | 43.46896 | -1.50986 | 229 ft | 14 kts | 79° |
| 2026-04-22 18:48 | 43.46856 | -1.51007 | 230 ft | 9 kts | 264° |
| 2026-04-22 18:48 | 43.46856 | -1.51012 | 230 ft | 0 kts | 266° |
| 2026-04-22 18:48 | 43.46851 | -1.51193 | 234 ft | 55 kts | 268° |
| 2026-04-22 18:48 | 43.46843 | -1.52047 | 239 ft | 121 kts | 270° |
| 2026-04-22 18:49 | 43.46829 | -1.53429 | 462 ft | 154 kts | 269° |
| 2026-04-22 18:49 | 43.46835 | -1.54968 | 980 ft | 166 kts | 270° |
| 2026-04-22 18:49 | 43.46819 | -1.56530 | 1593 ft | 162 kts | 268° |
| 2026-04-22 18:49 | 43.46768 | -1.58107 | 2040 ft | 171 kts | 269° |
| 2026-04-22 18:50 | 43.46791 | -1.59850 | 2249 ft | 193 kts | 283° |
| 2026-04-22 18:50 | 43.47561 | -1.61415 | 2425 ft | 213 kts | 327° |
| 2026-04-22 18:50 | 43.49054 | -1.61851 | 2638 ft | 234 kts | 9° |
| 2026-04-22 18:50 | 43.50560 | -1.60833 | 2998 ft | 254 kts | 37° |
| 2026-04-22 18:51 | 43.52001 | -1.59404 | 3642 ft | 258 kts | 22° |
| 2026-04-22 18:51 | 43.53745 | -1.58833 | 4354 ft | 260 kts | 4° |
| 2026-04-22 18:51 | 43.55561 | -1.58789 | 5084 ft | 263 kts | 357° |
| 2026-04-22 18:51 | 43.57402 | -1.58831 | 5747 ft | 269 kts | 5° |
| 2026-04-22 18:52 | 43.59186 | -1.58004 | 6345 ft | 278 kts | 34° |
| 2026-04-22 18:52 | 43.60601 | -1.56156 | 6948 ft | 284 kts | 46° |
| 2026-04-22 18:52 | 43.61956 | -1.54142 | 7601 ft | 288 kts | 46° |
| 2026-04-22 18:52 | 43.63327 | -1.52099 | 8272 ft | 292 kts | 47° |
| 2026-04-22 18:53 | 43.64718 | -1.50030 | 8940 ft | 296 kts | 47° |
| 2026-04-22 18:53 | 43.66127 | -1.47938 | 9602 ft | 300 kts | 47° |
| 2026-04-22 18:53 | 43.67557 | -1.45812 | 10227 ft | 304 kts | 46° |
| 2026-04-22 18:53 | 43.69039 | -1.43607 | 10463 ft | 325 kts | 46° |
| 2026-04-22 18:54 | 43.70628 | -1.41239 | 10582 ft | 346 kts | 46° |
| 2026-04-22 18:54 | 43.72310 | -1.38728 | 10722 ft | 366 kts | 47° |
| 2026-04-22 18:54 | 43.74082 | -1.36079 | 10956 ft | 381 kts | 46° |
| 2026-04-22 18:54 | 43.75896 | -1.33361 | 11476 ft | 387 kts | 46° |
| 2026-04-22 18:55 | 43.77755 | -1.30574 | 12072 ft | 391 kts | 46° |
| 2026-04-22 18:55 | 43.79588 | -1.27854 | 12657 ft | 394 kts | 44° |
| 2026-04-22 18:55 | 43.81637 | -1.25313 | 13252 ft | 397 kts | 39° |
| 2026-04-22 18:55 | 43.83731 | -1.22805 | 13878 ft | 400 kts | 39° |
| 2026-04-22 18:56 | 43.85845 | -1.20274 | 14431 ft | 403 kts | 39° |
| 2026-04-22 18:56 | 43.87972 | -1.17725 | 14999 ft | 405 kts | 39° |
| 2026-04-22 18:56 | 43.90136 | -1.15126 | 15578 ft | 408 kts | 39° |
| 2026-04-22 18:56 | 43.92289 | -1.12535 | 16141 ft | 411 kts | 39° |
| 2026-04-22 18:57 | 43.94456 | -1.09923 | 16705 ft | 414 kts | 39° |
| 2026-04-22 18:57 | 43.96609 | -1.07326 | 17268 ft | 417 kts | 39° |
| 2026-04-22 18:57 | 43.98828 | -1.04642 | 17829 ft | 420 kts | 40° |
| 2026-04-22 18:57 | 44.01040 | -1.01968 | 18366 ft | 423 kts | 39° |
| 2026-04-22 18:58 | 44.03269 | -0.99273 | 18818 ft | 426 kts | 39° |
| 2026-04-22 18:58 | 44.05513 | -0.96558 | 19255 ft | 429 kts | 39° |
| 2026-04-22 18:58 | 44.07733 | -0.93862 | 19684 ft | 432 kts | 39° |
| 2026-04-22 18:58 | 44.10002 | -0.91101 | 20115 ft | 435 kts | 39° |
| 2026-04-22 18:59 | 44.12286 | -0.88322 | 20552 ft | 437 kts | 39° |
| 2026-04-22 18:59 | 44.14615 | -0.85486 | 20975 ft | 440 kts | 39° |
| 2026-04-22 18:59 | 44.16892 | -0.82712 | 21383 ft | 443 kts | 39° |
| 2026-04-22 18:59 | 44.19219 | -0.79878 | 21793 ft | 445 kts | 39° |
| 2026-04-22 19:00 | 44.21560 | -0.77027 | 22200 ft | 448 kts | 39° |
| 2026-04-22 19:00 | 44.23907 | -0.74161 | 22615 ft | 451 kts | 39° |
| 2026-04-22 19:00 | 44.26270 | -0.71267 | 23000 ft | 453 kts | 39° |
| 2026-04-22 19:00 | 44.28656 | -0.68371 | 23393 ft | 455 kts | 38° |
| 2026-04-22 19:01 | 44.31113 | -0.65562 | 23764 ft | 457 kts | 36° |
| 2026-04-22 19:01 | 44.33628 | -0.62840 | 24092 ft | 459 kts | 35° |
| 2026-04-22 19:01 | 44.36186 | -0.60147 | 24433 ft | 461 kts | 34° |
| 2026-04-22 19:01 | 44.38761 | -0.57453 | 24753 ft | 463 kts | 34° |
| 2026-04-22 19:02 | 44.41338 | -0.54737 | 25077 ft | 465 kts | 34° |
| 2026-04-22 19:02 | 44.43916 | -0.51979 | 25394 ft | 467 kts | 35° |
| 2026-04-22 19:02 | 44.46488 | -0.49193 | 25706 ft | 469 kts | 35° |
| 2026-04-22 19:02 | 44.49067 | -0.46372 | 26016 ft | 471 kts | 35° |
| 2026-04-22 19:03 | 44.51653 | -0.43530 | 26341 ft | 473 kts | 35° |
| 2026-04-22 19:03 | 44.54250 | -0.40676 | 26655 ft | 475 kts | 35° |
| 2026-04-22 19:03 | 44.56853 | -0.37820 | 26973 ft | 477 kts | 35° |
| 2026-04-22 19:03 | 44.59475 | -0.34947 | 27283 ft | 479 kts | 35° |
| 2026-04-22 19:04 | 44.61254 | -0.32998 | 27487 ft | 480 kts | 34° |
| 2026-04-22 19:04 | 44.63882 | -0.30118 | 27870 ft | 479 kts | 34° |
| 2026-04-22 19:04 | 44.66508 | -0.27237 | 28316 ft | 478 kts | 34° |
| 2026-04-22 19:04 | 44.69125 | -0.24360 | 28749 ft | 477 kts | 34° |
| 2026-04-22 19:05 | 44.71738 | -0.21491 | 29172 ft | 476 kts | 34° |
| 2026-04-22 19:05 | 44.74340 | -0.18633 | 29591 ft | 475 kts | 34° |
| 2026-04-22 19:05 | 44.76941 | -0.15771 | 30013 ft | 474 kts | 34° |
| 2026-04-22 19:05 | 44.79535 | -0.12909 | 30386 ft | 473 kts | 34° |
| 2026-04-22 19:06 | 44.82114 | -0.10053 | 30736 ft | 472 kts | 34° |
| 2026-04-22 19:06 | 44.84691 | -0.07194 | 31095 ft | 471 kts | 34° |
| 2026-04-22 19:06 | 44.87261 | -0.04342 | 31465 ft | 469 kts | 34° |
| 2026-04-22 19:07 | 44.92374 | 0.01338 | 32170 ft | 467 kts | 34° |
| 2026-04-22 19:07 | 44.94924 | 0.04170 | 32515 ft | 465 kts | 34° |
| 2026-04-22 19:07 | 44.97466 | 0.06995 | 32867 ft | 464 kts | 33° |
| 2026-04-22 19:07 | 45.00001 | 0.09817 | 33211 ft | 463 kts | 33° |
| 2026-04-22 19:08 | 45.02521 | 0.12630 | 33561 ft | 462 kts | 33° |
| 2026-04-22 19:08 | 45.05040 | 0.15445 | 33891 ft | 461 kts | 33° |
| 2026-04-22 19:08 | 45.07559 | 0.18258 | 34023 ft | 461 kts | 33° |
| 2026-04-22 19:09 | 45.12579 | 0.23877 | 34032 ft | 460 kts | 33° |
| 2026-04-22 19:09 | 45.17591 | 0.29506 | 34030 ft | 459 kts | 33° |
| 2026-04-22 19:10 | 45.22590 | 0.35143 | 34031 ft | 459 kts | 33° |
| 2026-04-22 19:10 | 45.27592 | 0.40790 | 34031 ft | 459 kts | 33° |
| 2026-04-22 19:11 | 45.32591 | 0.46424 | 34032 ft | 459 kts | 33° |
| 2026-04-22 19:11 | 45.37592 | 0.52086 | 34039 ft | 459 kts | 33° |
| 2026-04-22 19:12 | 45.42585 | 0.57764 | 34042 ft | 460 kts | 33° |
| 2026-04-22 19:12 | 45.47575 | 0.63456 | 34054 ft | 460 kts | 33° |
| 2026-04-22 19:13 | 45.52573 | 0.69166 | 34057 ft | 460 kts | 33° |
| 2026-04-22 19:13 | 45.57568 | 0.74876 | 34067 ft | 460 kts | 33° |
| 2026-04-22 19:14 | 45.62568 | 0.80605 | 34072 ft | 461 kts | 33° |
| 2026-04-22 19:14 | 45.67560 | 0.86344 | 34078 ft | 461 kts | 33° |
| 2026-04-22 19:15 | 45.71715 | 0.91134 | 34084 ft | 461 kts | 33° |
| 2026-04-22 19:15 | 45.77549 | 0.97872 | 34097 ft | 461 kts | 33° |
| 2026-04-22 19:16 | 45.82643 | 1.03415 | 34105 ft | 455 kts | 25° |
| 2026-04-22 19:16 | 45.88113 | 1.07932 | 34101 ft | 454 kts | 24° |
| 2026-04-22 19:17 | 45.93583 | 1.12476 | 34104 ft | 454 kts | 24° |
| 2026-04-22 19:17 | 45.99042 | 1.17033 | 34106 ft | 454 kts | 24° |
| 2026-04-22 19:18 | 46.04503 | 1.21604 | 34112 ft | 454 kts | 24° |
| 2026-04-22 19:18 | 46.09918 | 1.26133 | 34115 ft | 453 kts | 24° |
| 2026-04-22 19:19 | 46.15410 | 1.30728 | 34122 ft | 453 kts | 24° |
| 2026-04-22 19:19 | 46.20848 | 1.35293 | 34131 ft | 453 kts | 24° |
| 2026-04-22 19:20 | 46.26252 | 1.39847 | 34134 ft | 452 kts | 24° |
| 2026-04-22 19:20 | 46.31684 | 1.44435 | 34137 ft | 452 kts | 24° |
| 2026-04-22 19:21 | 46.37108 | 1.49022 | 34142 ft | 452 kts | 24° |
| 2026-04-22 19:21 | 46.42529 | 1.53618 | 34147 ft | 451 kts | 24° |
| 2026-04-22 19:22 | 46.47942 | 1.58234 | 34149 ft | 451 kts | 24° |
| 2026-04-22 19:22 | 46.53384 | 1.62870 | 34144 ft | 450 kts | 24° |
| 2026-04-22 19:23 | 46.58755 | 1.67449 | 34148 ft | 450 kts | 24° |
| 2026-04-22 19:23 | 46.64185 | 1.72093 | 34164 ft | 450 kts | 24° |
| 2026-04-22 19:24 | 46.69542 | 1.76684 | 34169 ft | 449 kts | 24° |
| 2026-04-22 19:24 | 46.74931 | 1.81318 | 34164 ft | 449 kts | 24° |
| 2026-04-22 19:25 | 46.80330 | 1.85983 | 34164 ft | 448 kts | 25° |
| 2026-04-22 19:25 | 46.85700 | 1.90624 | 34160 ft | 448 kts | 25° |
| 2026-04-22 19:26 | 46.91063 | 1.95258 | 34173 ft | 447 kts | 25° |
| 2026-04-22 19:26 | 46.96413 | 1.99902 | 34176 ft | 447 kts | 25° |
| 2026-04-22 19:27 | 47.01756 | 2.04555 | 34183 ft | 446 kts | 25° |
| 2026-04-22 19:27 | 47.07083 | 2.09211 | 34187 ft | 445 kts | 24° |
| 2026-04-22 19:28 | 47.12408 | 2.13863 | 34192 ft | 445 kts | 25° |
| 2026-04-22 19:28 | 47.17718 | 2.18514 | 34195 ft | 444 kts | 24° |
| 2026-04-22 19:29 | 47.23020 | 2.23168 | 34195 ft | 443 kts | 24° |
| 2026-04-22 19:29 | 47.28305 | 2.27827 | 34201 ft | 443 kts | 25° |
| 2026-04-22 19:30 | 47.32693 | 2.31697 | 34200 ft | 442 kts | 24° |
| 2026-04-22 19:30 | 47.38856 | 2.37136 | 34208 ft | 441 kts | 24° |
| 2026-04-22 19:31 | 47.44114 | 2.41802 | 34211 ft | 440 kts | 24° |
| 2026-04-22 19:31 | 47.49350 | 2.46471 | 34211 ft | 439 kts | 24° |
| 2026-04-22 19:32 | 47.54582 | 2.51142 | 34215 ft | 438 kts | 24° |
| 2026-04-22 19:32 | 47.59801 | 2.55790 | 34215 ft | 438 kts | 24° |
| 2026-04-22 19:33 | 47.65008 | 2.60440 | 34211 ft | 437 kts | 24° |
| 2026-04-22 19:33 | 47.70207 | 2.65104 | 34218 ft | 436 kts | 24° |
| 2026-04-22 19:34 | 47.75390 | 2.69762 | 34224 ft | 435 kts | 24° |
| 2026-04-22 19:34 | 47.80561 | 2.74433 | 34227 ft | 434 kts | 24° |
| 2026-04-22 19:35 | 47.85720 | 2.79103 | 34229 ft | 434 kts | 24° |
| 2026-04-22 19:35 | 47.90040 | 2.83014 | 34230 ft | 433 kts | 24° |
| 2026-04-22 19:36 | 47.96045 | 2.88460 | 34239 ft | 432 kts | 24° |
| 2026-04-22 19:36 | 48.01143 | 2.93107 | 34240 ft | 432 kts | 24° |
| 2026-04-22 19:37 | 48.06299 | 2.97801 | 34243 ft | 431 kts | 24° |
| 2026-04-22 19:37 | 48.11416 | 3.02482 | 34247 ft | 431 kts | 24° |
| 2026-04-22 19:38 | 48.16517 | 3.07169 | 34244 ft | 430 kts | 24° |
| 2026-04-22 19:38 | 48.21622 | 3.11850 | 34250 ft | 430 kts | 24° |
| 2026-04-22 19:39 | 48.26715 | 3.16527 | 34251 ft | 429 kts | 25° |
| 2026-04-22 19:39 | 48.31801 | 3.21226 | 34254 ft | 429 kts | 25° |
| 2026-04-22 19:40 | 48.36874 | 3.25929 | 34259 ft | 428 kts | 25° |
| 2026-04-22 19:40 | 48.41937 | 3.30671 | 34258 ft | 429 kts | 26° |
| 2026-04-22 19:41 | 48.46047 | 3.34870 | 34264 ft | 430 kts | 28° |
| 2026-04-22 19:41 | 48.50915 | 3.40118 | 34267 ft | 430 kts | 29° |
| 2026-04-22 19:42 | 48.55788 | 3.45352 | 34274 ft | 429 kts | 29° |
| 2026-04-22 19:42 | 48.60677 | 3.50506 | 34275 ft | 428 kts | 28° |
| 2026-04-22 19:43 | 48.68005 | 3.58243 | 34278 ft | 428 kts | 29° |
| 2026-04-22 19:43 | 48.72872 | 3.63420 | 34287 ft | 428 kts | 29° |
| 2026-04-22 19:44 | 48.77736 | 3.68608 | 34289 ft | 427 kts | 29° |
| 2026-04-22 19:44 | 48.82598 | 3.73811 | 34297 ft | 427 kts | 29° |
| 2026-04-22 19:45 | 48.87453 | 3.79010 | 34283 ft | 427 kts | 29° |
| 2026-04-22 19:45 | 48.92315 | 3.84220 | 34286 ft | 427 kts | 29° |
| 2026-04-22 19:46 | 48.97205 | 3.89467 | 34289 ft | 428 kts | 29° |
| 2026-04-22 19:46 | 49.02034 | 3.94676 | 34289 ft | 428 kts | 29° |
| 2026-04-22 19:47 | 49.06925 | 3.99966 | 34291 ft | 429 kts | 30° |
| 2026-04-22 19:47 | 49.11792 | 4.05238 | 34292 ft | 429 kts | 30° |
| 2026-04-22 19:48 | 49.16660 | 4.10521 | 34292 ft | 430 kts | 30° |
| 2026-04-22 19:48 | 49.21533 | 4.15819 | 34292 ft | 430 kts | 31° |
| 2026-04-22 19:49 | 49.26414 | 4.21141 | 34294 ft | 431 kts | 31° |
| 2026-04-22 19:49 | 49.31303 | 4.26465 | 34535 ft | 432 kts | 31° |
| 2026-04-22 19:50 | 49.33756 | 4.29125 | 34806 ft | 432 kts | 31° |
| 2026-04-22 19:50 | 49.36212 | 4.31783 | 35055 ft | 432 kts | 31° |
| 2026-04-22 19:50 | 49.38670 | 4.34449 | 35234 ft | 433 kts | 31° |
| 2026-04-22 19:50 | 49.41125 | 4.37123 | 35287 ft | 434 kts | 32° |
| 2026-04-22 19:51 | 49.46037 | 4.42507 | 35294 ft | 433 kts | 32° |
| 2026-04-22 19:51 | 49.50940 | 4.47892 | 35297 ft | 433 kts | 32° |
| 2026-04-22 19:52 | 49.55849 | 4.53284 | 35307 ft | 433 kts | 32° |
| 2026-04-22 19:52 | 49.60748 | 4.58684 | 35308 ft | 433 kts | 32° |
| 2026-04-22 19:53 | 49.65655 | 4.64099 | 35322 ft | 434 kts | 32° |
| 2026-04-22 19:53 | 49.70559 | 4.69520 | 35327 ft | 434 kts | 32° |
| 2026-04-22 19:54 | 49.75464 | 4.74972 | 35333 ft | 434 kts | 33° |
| 2026-04-22 19:54 | 49.80364 | 4.80427 | 35340 ft | 434 kts | 33° |
| 2026-04-22 19:55 | 49.85260 | 4.85889 | 35341 ft | 434 kts | 33° |
| 2026-04-22 19:55 | 49.90156 | 4.91373 | 35343 ft | 434 kts | 33° |
| 2026-04-22 19:56 | 49.95044 | 4.96864 | 35350 ft | 434 kts | 33° |
| 2026-04-22 19:56 | 49.99936 | 5.02360 | 35354 ft | 434 kts | 33° |
| 2026-04-22 19:57 | 50.04818 | 5.07854 | 35356 ft | 433 kts | 33° |
| 2026-04-22 19:57 | 50.09700 | 5.13370 | 35355 ft | 433 kts | 33° |
| 2026-04-22 19:58 | 50.14571 | 5.18898 | 35361 ft | 433 kts | 34° |
| 2026-04-22 19:58 | 50.19447 | 5.24442 | 35366 ft | 433 kts | 34° |
| 2026-04-22 20:00 | 50.36473 | 5.43885 | 35365 ft | 433 kts | 34° |
| 2026-04-22 20:01 | 50.41354 | 5.49502 | 35376 ft | 433 kts | 34° |
| 2026-04-22 20:01 | 50.46207 | 5.55098 | 35376 ft | 433 kts | 35° |
| 2026-04-22 20:02 | 50.51049 | 5.60705 | 35375 ft | 433 kts | 35° |
| 2026-04-22 20:02 | 50.55898 | 5.66317 | 35378 ft | 432 kts | 35° |
| 2026-04-22 20:03 | 50.60732 | 5.71931 | 35371 ft | 432 kts | 35° |
| 2026-04-22 20:03 | 50.65562 | 5.77563 | 35373 ft | 432 kts | 35° |
| 2026-04-22 20:04 | 50.70391 | 5.83191 | 35374 ft | 432 kts | 36° |
| 2026-04-22 20:04 | 50.75215 | 5.88831 | 35375 ft | 432 kts | 36° |
| 2026-04-22 20:05 | 50.80038 | 5.94496 | 35376 ft | 432 kts | 36° |
| 2026-04-22 20:05 | 50.84864 | 6.00180 | 35374 ft | 432 kts | 36° |
| 2026-04-22 20:06 | 50.89684 | 6.05873 | 35383 ft | 432 kts | 36° |
| 2026-04-22 20:06 | 50.94499 | 6.11570 | 35379 ft | 432 kts | 36° |
| 2026-04-22 20:07 | 50.99309 | 6.17276 | 35378 ft | 432 kts | 36° |
| 2026-04-22 20:07 | 51.04124 | 6.22998 | 35379 ft | 432 kts | 36° |
| 2026-04-22 20:08 | 51.08930 | 6.28731 | 35378 ft | 432 kts | 37° |
| 2026-04-22 20:08 | 51.13734 | 6.34479 | 35377 ft | 432 kts | 37° |
| 2026-04-22 20:09 | 51.18530 | 6.40231 | 35377 ft | 432 kts | 37° |
| 2026-04-22 20:09 | 51.23324 | 6.45993 | 35372 ft | 431 kts | 37° |
| 2026-04-22 20:10 | 51.28117 | 6.51766 | 35370 ft | 431 kts | 37° |
| 2026-04-22 20:10 | 51.32937 | 6.57589 | 35368 ft | 431 kts | 37° |
| 2026-04-22 20:11 | 51.37725 | 6.63385 | 35367 ft | 432 kts | 37° |
| 2026-04-22 20:11 | 51.42508 | 6.69201 | 35375 ft | 432 kts | 37° |
| 2026-04-22 20:12 | 51.47299 | 6.75042 | 35379 ft | 433 kts | 37° |
| 2026-04-22 20:12 | 51.51276 | 6.79903 | 35383 ft | 433 kts | 37° |
| 2026-04-22 20:13 | 51.56881 | 6.86758 | 35391 ft | 433 kts | 38° |
| 2026-04-22 20:13 | 51.61667 | 6.92633 | 35393 ft | 433 kts | 38° |
| 2026-04-22 20:14 | 51.66454 | 6.98536 | 35401 ft | 434 kts | 38° |
| 2026-04-22 20:14 | 51.71240 | 7.04445 | 35399 ft | 434 kts | 38° |
| 2026-04-22 20:15 | 51.76026 | 7.10382 | 35398 ft | 434 kts | 38° |
| 2026-04-22 20:15 | 51.80808 | 7.16321 | 35395 ft | 434 kts | 38° |
| 2026-04-22 20:16 | 51.85595 | 7.22279 | 35394 ft | 434 kts | 39° |
| 2026-04-22 20:16 | 51.89569 | 7.27235 | 35398 ft | 434 kts | 39° |
| 2026-04-22 20:17 | 51.94346 | 7.33213 | 35402 ft | 434 kts | 39° |
| 2026-04-22 20:17 | 51.99152 | 7.39242 | 35390 ft | 434 kts | 39° |
| 2026-04-22 20:18 | 52.03915 | 7.45237 | 35398 ft | 433 kts | 39° |
| 2026-04-22 20:18 | 52.08671 | 7.51255 | 35393 ft | 433 kts | 40° |
| 2026-04-22 20:19 | 52.13423 | 7.57269 | 35403 ft | 433 kts | 40° |
| 2026-04-22 20:19 | 52.18170 | 7.63297 | 35392 ft | 432 kts | 40° |
| 2026-04-22 20:20 | 52.22913 | 7.69334 | 35399 ft | 432 kts | 40° |
| 2026-04-22 20:20 | 52.27650 | 7.75368 | 35396 ft | 432 kts | 40° |
| 2026-04-22 20:21 | 52.32386 | 7.81423 | 35397 ft | 432 kts | 41° |
| 2026-04-22 20:21 | 52.37110 | 7.87490 | 35397 ft | 432 kts | 41° |
| 2026-04-22 20:22 | 52.41835 | 7.93576 | 35396 ft | 432 kts | 41° |
| 2026-04-22 20:22 | 52.46556 | 7.99660 | 35398 ft | 432 kts | 42° |
| 2026-04-22 20:23 | 52.50819 | 8.06467 | 35398 ft | 427 kts | 51° |
| 2026-04-22 20:23 | 52.54786 | 8.13714 | 35400 ft | 426 kts | 52° |
| 2026-04-22 20:24 | 52.58726 | 8.20967 | 35401 ft | 425 kts | 52° |
| 2026-04-22 20:24 | 52.62650 | 8.28236 | 35401 ft | 424 kts | 52° |
| 2026-04-22 20:24 | 52.64618 | 8.31884 | 35198 ft | 432 kts | 53° |
| 2026-04-22 20:25 | 52.66622 | 8.35602 | 34896 ft | 436 kts | 53° |
| 2026-04-22 20:25 | 52.68642 | 8.39341 | 34605 ft | 437 kts | 53° |
| 2026-04-22 20:25 | 52.70660 | 8.43076 | 34317 ft | 437 kts | 53° |
| 2026-04-22 20:25 | 52.72680 | 8.46820 | 33985 ft | 437 kts | 53° |
| 2026-04-22 20:26 | 52.74699 | 8.50575 | 33652 ft | 437 kts | 54° |
| 2026-04-22 20:26 | 52.76716 | 8.54342 | 33336 ft | 438 kts | 54° |
| 2026-04-22 20:26 | 52.78728 | 8.58115 | 33002 ft | 439 kts | 54° |
| 2026-04-22 20:26 | 52.80750 | 8.61905 | 32681 ft | 440 kts | 54° |
| 2026-04-22 20:27 | 52.82778 | 8.65703 | 32357 ft | 441 kts | 54° |
| 2026-04-22 20:27 | 52.84812 | 8.69511 | 32052 ft | 442 kts | 54° |
| 2026-04-22 20:27 | 52.86841 | 8.73320 | 31743 ft | 441 kts | 54° |
| 2026-04-22 20:27 | 52.88868 | 8.77136 | 31383 ft | 443 kts | 54° |
| 2026-04-22 20:28 | 52.90907 | 8.80983 | 31048 ft | 445 kts | 54° |
| 2026-04-22 20:28 | 52.92953 | 8.84854 | 30705 ft | 447 kts | 54° |
| 2026-04-22 20:28 | 52.94981 | 8.88697 | 30318 ft | 436 kts | 54° |
| 2026-04-22 20:28 | 52.96943 | 8.92394 | 29928 ft | 420 kts | 54° |
| 2026-04-22 20:29 | 52.98866 | 8.96023 | 29528 ft | 417 kts | 54° |
| 2026-04-22 20:29 | 53.00767 | 8.99630 | 29124 ft | 415 kts | 54° |
| 2026-04-22 20:29 | 53.02660 | 9.03233 | 28627 ft | 413 kts | 53° |
| 2026-04-22 20:29 | 53.04542 | 9.06818 | 28036 ft | 410 kts | 53° |
| 2026-04-22 20:30 | 53.06408 | 9.10383 | 27455 ft | 407 kts | 53° |
| 2026-04-22 20:30 | 53.08256 | 9.13924 | 26893 ft | 405 kts | 53° |
| 2026-04-22 20:30 | 53.10096 | 9.17458 | 26343 ft | 403 kts | 52° |
| 2026-04-22 20:30 | 53.11928 | 9.20977 | 25799 ft | 401 kts | 52° |
| 2026-04-22 20:31 | 53.13753 | 9.24482 | 25286 ft | 400 kts | 51° |
| 2026-04-22 20:31 | 53.15570 | 9.27973 | 24767 ft | 398 kts | 51° |
| 2026-04-22 20:31 | 53.17406 | 9.31504 | 24271 ft | 397 kts | 51° |
| 2026-04-22 20:31 | 53.19209 | 9.34973 | 23747 ft | 396 kts | 50° |
| 2026-04-22 20:32 | 53.21004 | 9.38443 | 23169 ft | 394 kts | 50° |
| 2026-04-22 20:32 | 53.22786 | 9.41893 | 22591 ft | 392 kts | 50° |
| 2026-04-22 20:32 | 53.24560 | 9.45330 | 22047 ft | 390 kts | 50° |
| 2026-04-22 20:32 | 53.26326 | 9.48752 | 21508 ft | 388 kts | 50° |
| 2026-04-22 20:33 | 53.28085 | 9.52162 | 20982 ft | 386 kts | 50° |
| 2026-04-22 20:33 | 53.29831 | 9.55552 | 20470 ft | 385 kts | 50° |
| 2026-04-22 20:33 | 53.31572 | 9.58937 | 19969 ft | 383 kts | 50° |
| 2026-04-22 20:33 | 53.33309 | 9.62321 | 19447 ft | 383 kts | 50° |
| 2026-04-22 20:34 | 53.35037 | 9.65692 | 18929 ft | 381 kts | 49° |
| 2026-04-22 20:34 | 53.36759 | 9.69057 | 18386 ft | 379 kts | 49° |
| 2026-04-22 20:34 | 53.38472 | 9.72407 | 17813 ft | 377 kts | 49° |
| 2026-04-22 20:34 | 53.40168 | 9.75724 | 17364 ft | 372 kts | 49° |
| 2026-04-22 20:35 | 53.41831 | 9.78986 | 16931 ft | 366 kts | 49° |
| 2026-04-22 20:35 | 53.43449 | 9.82165 | 16506 ft | 350 kts | 49° |
| 2026-04-22 20:35 | 53.44999 | 9.85221 | 16101 ft | 340 kts | 49° |
| 2026-04-22 20:35 | 53.46520 | 9.88219 | 15707 ft | 335 kts | 49° |
| 2026-04-22 20:36 | 53.48017 | 9.91171 | 15308 ft | 330 kts | 49° |
| 2026-04-22 20:36 | 53.49498 | 9.94093 | 14909 ft | 326 kts | 49° |
| 2026-04-22 20:36 | 53.50951 | 9.96960 | 14497 ft | 317 kts | 49° |
| 2026-04-22 20:36 | 53.52356 | 9.99733 | 14081 ft | 310 kts | 49° |
| 2026-04-22 20:37 | 53.53748 | 10.02488 | 13601 ft | 308 kts | 49° |
| 2026-04-22 20:37 | 53.55133 | 10.05231 | 13153 ft | 307 kts | 49° |
| 2026-04-22 20:37 | 53.56509 | 10.07963 | 12708 ft | 305 kts | 49° |
| 2026-04-22 20:37 | 53.57875 | 10.10679 | 12274 ft | 304 kts | 49° |
| 2026-04-22 20:38 | 53.59239 | 10.13393 | 11845 ft | 303 kts | 49° |
| 2026-04-22 20:38 | 53.60596 | 10.16093 | 11422 ft | 306 kts | 48° |
| 2026-04-22 20:38 | 53.62064 | 10.19013 | 11009 ft | 343 kts | 49° |
| 2026-04-22 20:38 | 53.63595 | 10.22073 | 10571 ft | 338 kts | 48° |
| 2026-04-22 20:39 | 53.65096 | 10.25082 | 10170 ft | 331 kts | 48° |
| 2026-04-22 20:39 | 53.66533 | 10.27968 | 10025 ft | 309 kts | 48° |
| 2026-04-22 20:39 | 53.67863 | 10.30644 | 9890 ft | 288 kts | 48° |
| 2026-04-22 20:39 | 53.69120 | 10.33168 | 9754 ft | 277 kts | 48° |
| 2026-04-22 20:40 | 53.70397 | 10.35575 | 9620 ft | 273 kts | 38° |
| 2026-04-22 20:40 | 53.72052 | 10.37011 | 9479 ft | 269 kts | 11° |
| 2026-04-22 20:40 | 53.73908 | 10.37016 | 9041 ft | 269 kts | 345° |
| 2026-04-22 20:40 | 53.75572 | 10.35636 | 8588 ft | 268 kts | 327° |
| 2026-04-22 20:41 | 53.77077 | 10.33778 | 8131 ft | 267 kts | 324° |
| 2026-04-22 20:41 | 53.78550 | 10.31881 | 7685 ft | 266 kts | 324° |
| 2026-04-22 20:41 | 53.80026 | 10.29978 | 7235 ft | 266 kts | 324° |
| 2026-04-22 20:41 | 53.81488 | 10.28097 | 6804 ft | 261 kts | 324° |
| 2026-04-22 20:42 | 53.82923 | 10.26253 | 6344 ft | 257 kts | 324° |
| 2026-04-22 20:42 | 53.84335 | 10.24445 | 5872 ft | 252 kts | 324° |
| 2026-04-22 20:42 | 53.85793 | 10.22881 | 5422 ft | 246 kts | 341° |
| 2026-04-22 20:42 | 53.87461 | 10.22626 | 4966 ft | 242 kts | 11° |
| 2026-04-22 20:43 | 53.88954 | 10.23873 | 4479 ft | 242 kts | 41° |
| 2026-04-22 20:43 | 53.89832 | 10.26277 | 4059 ft | 240 kts | 72° |
| 2026-04-22 20:43 | 53.89788 | 10.28955 | 3967 ft | 226 kts | 107° |
| 2026-04-22 20:43 | 53.88905 | 10.31022 | 4006 ft | 217 kts | 143° |
| 2026-04-22 20:44 | 53.87507 | 10.31850 | 4005 ft | 215 kts | 180° |
| 2026-04-22 20:44 | 53.86055 | 10.31335 | 4000 ft | 205 kts | 202° |
| 2026-04-22 20:44 | 53.84756 | 10.30542 | 3989 ft | 199 kts | 204° |
| 2026-04-22 20:44 | 53.83460 | 10.29709 | 3988 ft | 195 kts | 204° |
| 2026-04-22 20:45 | 53.82243 | 10.28927 | 3985 ft | 185 kts | 205° |
| 2026-04-22 20:45 | 53.81016 | 10.28143 | 3998 ft | 189 kts | 204° |
| 2026-04-22 20:45 | 53.79789 | 10.27354 | 3943 ft | 186 kts | 204° |
| 2026-04-22 20:45 | 53.78576 | 10.26574 | 3603 ft | 187 kts | 205° |
| 2026-04-22 20:46 | 53.76158 | 10.25016 | 3023 ft | 183 kts | 210° |
| 2026-04-22 20:46 | 53.75218 | 10.23648 | 3013 ft | 178 kts | 236° |
| 2026-04-22 20:46 | 53.74430 | 10.22030 | 3008 ft | 178 kts | 236° |
| 2026-04-22 20:47 | 53.73642 | 10.20414 | 3010 ft | 178 kts | 236° |
| 2026-04-22 20:47 | 53.72853 | 10.18801 | 2919 ft | 179 kts | 236° |
| 2026-04-22 20:47 | 53.72064 | 10.17189 | 2718 ft | 177 kts | 235° |
| 2026-04-22 20:47 | 53.71281 | 10.15591 | 2491 ft | 176 kts | 235° |
| 2026-04-22 20:48 | 53.70504 | 10.14007 | 2252 ft | 175 kts | 236° |
| 2026-04-22 20:48 | 53.69729 | 10.12427 | 2018 ft | 174 kts | 236° |
| 2026-04-22 20:48 | 53.68977 | 10.10899 | 1794 ft | 160 kts | 236° |
| 2026-04-22 20:48 | 53.68295 | 10.09514 | 1567 ft | 149 kts | 236° |
| 2026-04-22 20:49 | 53.67647 | 10.08194 | 1367 ft | 145 kts | 237° |
| 2026-04-22 20:49 | 53.67009 | 10.06894 | 1166 ft | 143 kts | 237° |
| 2026-04-22 20:49 | 53.66381 | 10.05616 | 969 ft | 140 kts | 236° |
| 2026-04-22 20:49 | 53.65760 | 10.04355 | 768 ft | 138 kts | 234° |
| 2026-04-22 20:50 | 53.65157 | 10.03137 | 571 ft | 132 kts | 235° |
| 2026-04-22 20:50 | 53.64585 | 10.01944 | 391 ft | 131 kts | 236° |
| 2026-04-22 20:50 | 53.63990 | 10.00774 | 272 ft | 135 kts | 234° |
| 2026-04-22 20:50 | 53.63393 | 9.99557 | 57 ft | 130 kts | 234° |
| 2026-04-22 20:51 | 53.62969 | 9.98682 | 48 ft | 54 kts | 230° |
| 2026-04-22 20:51 | 53.62795 | 9.98489 | 48 ft | 27 kts | 191° |
| 2026-04-22 20:51 | 53.62726 | 9.98482 | 45 ft | 9 kts | 164° |
| 2026-04-22 20:51 | 53.62722 | 9.98485 | 46 ft | 0 kts | 159° |
| 2026-04-22 20:52 | 53.62716 | 9.98489 | 46 ft | 4 kts | 158° |
| 2026-04-22 20:52 | 53.62714 | 9.98590 | 45 ft | 14 kts | 61° |
| 2026-04-22 20:52 | 53.62789 | 9.98751 | 46 ft | 22 kts | 51° |
| 2026-04-22 20:53 | 53.62900 | 9.98980 | 47 ft | 28 kts | 49° |
| 2026-04-22 20:53 | 53.62974 | 9.99125 | 47 ft | 0 kts | 50° |
| 2026-04-22 20:53 | 53.62993 | 9.99163 | 48 ft | 8 kts | 50° |
| 2026-04-22 20:53 | 53.63057 | 9.99294 | 48 ft | 21 kts | 53° |
| 2026-04-22 20:54 | 53.63155 | 9.99528 | 48 ft | 28 kts | 52° |
| 2026-04-22 20:54 | 53.63258 | 9.99739 | 49 ft | 19 kts | 44° |
| 2026-04-22 20:54 | 53.63370 | 9.99942 | 50 ft | 27 kts | 49° |
| 2026-04-22 20:54 | 53.63427 | 10.00060 | 51 ft | 4 kts | 55° |
| 2026-04-22 20:55 | 53.63407 | 10.00165 | 51 ft | 15 kts | 139° |
| 2026-04-22 20:55 | 53.63372 | 10.00224 | 51 ft | 2 kts | 93° |
| 2026-04-22 20:55 | 53.63373 | 10.00307 | 51 ft | 3 kts | 87° |
| 2026-04-22 20:55 | 53.63374 | 10.00338 | 51 ft | 0 kts | 86° |